PWSweather.com
Personal Weather Stations
Station Observations
CRAINRR
Siesta Hills, Edelstein, IL 61526

Siesta HillsEdelstein, IL 61526

Lat: 40.9021, Lon: -89.5934

Elevation: 676

Station Type: Lacrosse 2811

High Low Average
Temperature 43.4°F6.3°C 32.8°F0.4°C 37.6°F3.1°C
Dew Point 37.3°F2.9°C 29.0°F-1.7°C 33.2°F0.7°C
Winds 4.6 mph 7.4 kmh Calm Calm 2.0 mph WSW3.2 kmh WSW
Wind Gusts 6.9 mph11.1 kmh -- 3.0 mph4.8 kmh
Humidity 89% 77% 84%
Pressure 30.08 in1018.6 mb 29.92 in1013.2 mb -
Precipitation 0.00 in0.0 mm - -
Hour Temp Dew Point Humidity Winds Wind Gusts Pressure Precip Precip Rate Daily Precip Total
12:03 AM 44.5°F6.9°C 38.0°F3.3°C 78% 2.4 mph WSW3.9 kmh WSW 4.3 mph6.9 kmh 29.90 in1012.5 mb 0.00 in0.0 mm 0.00 in/hr0.0 mm/hr 0.00 in0.0 mm
12:09 AM 44.1°F6.7°C 37.7°F3.2°C 78% 1.5 mph WSW2.4 kmh WSW 4.0 mph6.4 kmh 29.91 in1012.9 mb 0.00 in0.0 mm 0.00 in/hr0.0 mm/hr 0.00 in0.0 mm
12:14 AM 43.7°F6.5°C 37.6°F3.1°C 79% 3.1 mph WSW5.0 kmh WSW 4.9 mph7.9 kmh 29.91 in1012.9 mb 0.00 in0.0 mm 0.00 in/hr0.0 mm/hr 0.00 in0.0 mm
12:19 AM 43.6°F6.4°C 37.4°F3.0°C 79% 3.0 mph WSW4.8 kmh WSW 4.9 mph7.9 kmh 29.91 in1012.9 mb 0.00 in0.0 mm 0.00 in/hr0.0 mm/hr 0.00 in0.0 mm
12:24 AM 43.2°F6.2°C 37.1°F2.8°C 79% 3.0 mph WSW4.8 kmh WSW 4.5 mph7.2 kmh 29.91 in1012.9 mb 0.00 in0.0 mm 0.00 in/hr0.0 mm/hr 0.00 in0.0 mm
12:29 AM 42.8°F6.0°C 36.7°F2.6°C 79% 1.8 mph W2.9 kmh W 3.8 mph6.1 kmh 29.92 in1013.2 mb 0.00 in0.0 mm 0.00 in/hr0.0 mm/hr 0.00 in0.0 mm
12:34 AM 42.5°F5.8°C 36.4°F2.4°C 79% 2.4 mph WSW3.9 kmh WSW 3.6 mph5.8 kmh 29.91 in1012.9 mb 0.00 in0.0 mm 0.00 in/hr0.0 mm/hr 0.00 in0.0 mm
12:39 AM 42.1°F5.6°C 36.4°F2.4°C 80% 3.9 mph WSW6.3 kmh WSW 4.9 mph7.9 kmh 29.91 in1012.9 mb 0.00 in0.0 mm 0.00 in/hr0.0 mm/hr 0.00 in0.0 mm
12:45 AM 41.9°F5.5°C 36.2°F2.3°C 80% 2.9 mph WSW4.7 kmh WSW 4.9 mph7.9 kmh 29.92 in1013.2 mb 0.00 in0.0 mm 0.00 in/hr0.0 mm/hr 0.00 in0.0 mm
12:50 AM 41.8°F5.4°C 36.3°F2.4°C 81% 3.3 mph WSW5.3 kmh WSW 4.3 mph6.9 kmh 29.92 in1013.2 mb 0.00 in0.0 mm 0.00 in/hr0.0 mm/hr 0.00 in0.0 mm
12:55 AM 41.4°F5.2°C 35.9°F2.2°C 81% 2.8 mph WSW4.5 kmh WSW 5.4 mph8.7 kmh 29.92 in1013.2 mb 0.00 in0.0 mm 0.00 in/hr0.0 mm/hr 0.00 in0.0 mm
01:00 AM 41.2°F5.1°C 35.7°F2.1°C 81% 2.9 mph WSW4.7 kmh WSW 5.4 mph8.7 kmh 29.92 in1013.2 mb 0.00 in0.0 mm 0.00 in/hr0.0 mm/hr 0.00 in0.0 mm
01:05 AM 40.9°F4.9°C 35.5°F1.9°C 81% 2.8 mph WSW4.5 kmh WSW 4.0 mph6.4 kmh 29.93 in1013.5 mb 0.00 in0.0 mm 0.00 in/hr0.0 mm/hr 0.00 in0.0 mm
01:10 AM 40.7°F4.8°C 35.3°F1.8°C 81% 3.1 mph WSW5.0 kmh WSW 4.5 mph7.2 kmh 29.93 in1013.5 mb 0.00 in0.0 mm 0.00 in/hr0.0 mm/hr 0.00 in0.0 mm
01:16 AM 40.3°F4.6°C 34.9°F1.6°C 81% 2.8 mph WSW4.5 kmh WSW 4.5 mph7.2 kmh 29.93 in1013.5 mb 0.00 in0.0 mm 0.00 in/hr0.0 mm/hr 0.00 in0.0 mm
01:21 AM 40.0°F4.4°C 34.3°F1.3°C 80% 2.5 mph WSW4.0 kmh WSW 5.4 mph8.7 kmh 29.93 in1013.5 mb 0.00 in0.0 mm 0.00 in/hr0.0 mm/hr 0.00 in0.0 mm
01:26 AM 40.0°F4.4°C 34.6°F1.4°C 81% 2.7 mph WSW4.3 kmh WSW 6.0 mph9.7 kmh 29.93 in1013.5 mb 0.00 in0.0 mm 0.00 in/hr0.0 mm/hr 0.00 in0.0 mm
01:31 AM 39.8°F4.3°C 34.5°F1.4°C 81% 3.1 mph WSW5.0 kmh WSW 6.0 mph9.7 kmh 29.93 in1013.5 mb 0.00 in0.0 mm 0.00 in/hr0.0 mm/hr 0.00 in0.0 mm
01:36 AM 39.6°F4.2°C 34.3°F1.3°C 81% 1.6 mph SW2.6 kmh SW 4.7 mph7.6 kmh 29.93 in1013.5 mb 0.00 in0.0 mm 0.00 in/hr0.0 mm/hr 0.00 in0.0 mm
01:41 AM 39.6°F4.2°C 34.6°F1.4°C 82% 3.2 mph WSW5.1 kmh WSW 5.4 mph8.7 kmh 29.93 in1013.5 mb 0.00 in0.0 mm 0.00 in/hr0.0 mm/hr 0.00 in0.0 mm
01:47 AM 39.4°F4.1°C 34.4°F1.3°C 82% 1.9 mph W3.1 kmh W 5.4 mph8.7 kmh 29.94 in1013.9 mb 0.00 in0.0 mm 0.00 in/hr0.0 mm/hr 0.00 in0.0 mm
01:52 AM 39.2°F4.0°C 34.6°F1.4°C 83% 3.8 mph W6.1 kmh W 6.3 mph10.1 kmh 29.94 in1013.9 mb 0.00 in0.0 mm 0.00 in/hr0.0 mm/hr 0.00 in0.0 mm
01:57 AM 39.2°F4.0°C 34.2°F1.2°C 82% 4.0 mph W6.4 kmh W 6.3 mph10.1 kmh 29.94 in1013.9 mb 0.00 in0.0 mm 0.00 in/hr0.0 mm/hr 0.00 in0.0 mm
02:02 AM 39.1°F3.9°C 34.0°F1.1°C 82% 2.2 mph WSW3.5 kmh WSW 4.5 mph7.2 kmh 29.94 in1013.9 mb 0.00 in0.0 mm 0.00 in/hr0.0 mm/hr 0.00 in0.0 mm
02:07 AM 38.9°F3.8°C 33.8°F1.0°C 82% 2.8 mph W4.5 kmh W 5.1 mph8.2 kmh 29.94 in1013.9 mb 0.00 in0.0 mm 0.00 in/hr0.0 mm/hr 0.00 in0.0 mm
02:12 AM 38.5°F3.6°C 33.9°F1.1°C 83% 3.3 mph W5.3 kmh W 5.1 mph8.2 kmh 29.94 in1013.9 mb 0.00 in0.0 mm 0.00 in/hr0.0 mm/hr 0.00 in0.0 mm
02:17 AM 38.5°F3.6°C 33.9°F1.1°C 83% 1.6 mph WSW2.6 kmh WSW 4.9 mph7.9 kmh 29.94 in1013.9 mb 0.00 in0.0 mm 0.00 in/hr0.0 mm/hr 0.00 in0.0 mm
02:23 AM 38.5°F3.6°C 33.9°F1.1°C 83% 2.7 mph W4.3 kmh W 4.0 mph6.4 kmh 29.94 in1013.9 mb 0.00 in0.0 mm 0.00 in/hr0.0 mm/hr 0.00 in0.0 mm
02:28 AM 38.5°F3.6°C 33.9°F1.1°C 83% 2.1 mph SW3.4 kmh SW 5.1 mph8.2 kmh 29.94 in1013.9 mb 0.00 in0.0 mm 0.00 in/hr0.0 mm/hr 0.00 in0.0 mm
02:33 AM 38.2°F3.4°C 33.1°F0.6°C 82% 1.6 mph WSW2.6 kmh WSW 5.1 mph8.2 kmh 29.94 in1013.9 mb 0.00 in0.0 mm 0.00 in/hr0.0 mm/hr 0.00 in0.0 mm
02:40 AM 38.0°F3.3°C 32.9°F0.5°C 82% 1.7 mph WSW2.7 kmh WSW 2.7 mph4.3 kmh 29.94 in1013.9 mb 0.00 in0.0 mm 0.00 in/hr0.0 mm/hr 0.00 in0.0 mm
02:45 AM 37.8°F3.2°C 32.8°F0.4°C 82% 1.9 mph WSW3.1 kmh WSW 2.7 mph4.3 kmh 29.94 in1013.9 mb 0.00 in0.0 mm 0.00 in/hr0.0 mm/hr 0.00 in0.0 mm
02:50 AM 37.6°F3.1°C 33.0°F0.6°C 83% 1.2 mph W1.9 kmh W 3.1 mph5.0 kmh 29.94 in1013.9 mb 0.00 in0.0 mm 0.00 in/hr0.0 mm/hr 0.00 in0.0 mm
02:56 AM 37.4°F3.0°C 32.8°F0.4°C 83% 2.4 mph W3.9 kmh W 3.4 mph5.5 kmh 29.95 in1014.2 mb 0.00 in0.0 mm 0.00 in/hr0.0 mm/hr 0.00 in0.0 mm
03:01 AM 37.4°F3.0°C 33.0°F0.6°C 84% 4.2 mph W6.8 kmh W 5.8 mph9.3 kmh 29.95 in1014.2 mb 0.00 in0.0 mm 0.00 in/hr0.0 mm/hr 0.00 in0.0 mm
03:06 AM 37.4°F3.0°C 33.0°F0.6°C 84% 3.7 mph WSW6.0 kmh WSW 5.8 mph9.3 kmh 29.95 in1014.2 mb 0.00 in0.0 mm 0.00 in/hr0.0 mm/hr 0.00 in0.0 mm
03:11 AM 37.4°F3.0°C 33.3°F0.7°C 85% 3.6 mph W5.8 kmh W 6.3 mph10.1 kmh 29.95 in1014.2 mb 0.00 in0.0 mm 0.00 in/hr0.0 mm/hr 0.00 in0.0 mm
03:16 AM 37.4°F3.0°C 33.3°F0.7°C 85% 2.9 mph W4.7 kmh W 6.5 mph10.5 kmh 29.95 in1014.2 mb 0.00 in0.0 mm 0.00 in/hr0.0 mm/hr 0.00 in0.0 mm
03:21 AM 37.6°F3.1°C 33.5°F0.8°C 85% 4.0 mph WSW6.4 kmh WSW 6.5 mph10.5 kmh 29.96 in1014.6 mb 0.00 in0.0 mm 0.00 in/hr0.0 mm/hr 0.00 in0.0 mm
03:26 AM 37.4°F3.0°C 33.0°F0.6°C 84% 2.1 mph WSW3.4 kmh WSW 5.1 mph8.2 kmh 29.96 in1014.6 mb 0.00 in0.0 mm 0.00 in/hr0.0 mm/hr 0.00 in0.0 mm
03:31 AM 37.4°F3.0°C 33.3°F0.7°C 85% 3.9 mph WSW6.3 kmh WSW 6.5 mph10.5 kmh 29.95 in1014.2 mb 0.00 in0.0 mm 0.00 in/hr0.0 mm/hr 0.00 in0.0 mm
03:37 AM 37.4°F3.0°C 33.3°F0.7°C 85% 2.1 mph WSW3.4 kmh WSW 6.5 mph10.5 kmh 29.96 in1014.6 mb 0.00 in0.0 mm 0.00 in/hr0.0 mm/hr 0.00 in0.0 mm
03:42 AM 37.3°F2.9°C 33.1°F0.6°C 85% 2.9 mph WSW4.7 kmh WSW 5.6 mph9.0 kmh 29.96 in1014.6 mb 0.00 in0.0 mm 0.00 in/hr0.0 mm/hr 0.00 in0.0 mm
03:47 AM 37.3°F2.9°C 33.1°F0.6°C 85% 2.5 mph W4.0 kmh W 5.4 mph8.7 kmh 29.96 in1014.6 mb 0.00 in0.0 mm 0.00 in/hr0.0 mm/hr 0.00 in0.0 mm
03:52 AM 37.3°F2.9°C 33.1°F0.6°C 85% 1.9 mph SW3.1 kmh SW 5.4 mph8.7 kmh 29.97 in1014.9 mb 0.00 in0.0 mm 0.00 in/hr0.0 mm/hr 0.00 in0.0 mm
03:57 AM 37.1°F2.8°C 32.9°F0.5°C 85% 1.9 mph SW3.1 kmh SW 5.4 mph8.7 kmh 29.97 in1014.9 mb 0.00 in0.0 mm 0.00 in/hr0.0 mm/hr 0.00 in0.0 mm
04:02 AM 37.1°F2.8°C 32.9°F0.5°C 85% 2.4 mph WSW3.9 kmh WSW 4.9 mph7.9 kmh 29.97 in1014.9 mb 0.00 in0.0 mm 0.00 in/hr0.0 mm/hr 0.00 in0.0 mm
04:08 AM 37.1°F2.8°C 32.9°F0.5°C 85% 3.9 mph W6.3 kmh W 5.1 mph8.2 kmh 29.97 in1014.9 mb 0.00 in0.0 mm 0.00 in/hr0.0 mm/hr 0.00 in0.0 mm
04:13 AM 36.9°F2.7°C 32.8°F0.4°C 85% 2.5 mph WNW4.0 kmh WNW 5.1 mph8.2 kmh 29.97 in1014.9 mb 0.00 in0.0 mm 0.00 in/hr0.0 mm/hr 0.00 in0.0 mm
04:18 AM 36.9°F2.7°C 32.8°F0.4°C 85% 1.8 mph WSW2.9 kmh WSW 4.5 mph7.2 kmh 29.96 in1014.6 mb 0.00 in0.0 mm 0.00 in/hr0.0 mm/hr 0.00 in0.0 mm
04:23 AM 36.7°F2.6°C 32.9°F0.5°C 86% 4.6 mph W7.4 kmh W 6.9 mph11.1 kmh 29.97 in1014.9 mb 0.00 in0.0 mm 0.00 in/hr0.0 mm/hr 0.00 in0.0 mm
04:28 AM 36.9°F2.7°C 33.3°F0.7°C 87% 3.9 mph W6.3 kmh W 6.9 mph11.1 kmh 29.97 in1014.9 mb 0.00 in0.0 mm 0.00 in/hr0.0 mm/hr 0.00 in0.0 mm
04:33 AM 37.1°F2.8°C 33.2°F0.7°C 86% 3.0 mph WSW4.8 kmh WSW 6.3 mph10.1 kmh 29.97 in1014.9 mb 0.00 in0.0 mm 0.00 in/hr0.0 mm/hr 0.00 in0.0 mm
04:38 AM 37.1°F2.8°C 33.2°F0.7°C 86% 3.1 mph W5.0 kmh W 4.7 mph7.6 kmh 29.97 in1014.9 mb 0.00 in0.0 mm 0.00 in/hr0.0 mm/hr 0.00 in0.0 mm
04:44 AM 37.1°F2.8°C 33.2°F0.7°C 86% 1.5 mph WSW2.4 kmh WSW 4.7 mph7.6 kmh 29.97 in1014.9 mb 0.00 in0.0 mm 0.00 in/hr0.0 mm/hr 0.00 in0.0 mm
04:49 AM 37.1°F2.8°C 32.9°F0.5°C 85% 0.9 mph WSW1.4 kmh WSW 3.4 mph5.5 kmh 29.97 in1014.9 mb 0.00 in0.0 mm 0.00 in/hr0.0 mm/hr 0.00 in0.0 mm
04:54 AM 37.1°F2.8°C 32.9°F0.5°C 85% 0.9 mph WSW1.4 kmh WSW 2.5 mph4.0 kmh 29.97 in1014.9 mb 0.00 in0.0 mm 0.00 in/hr0.0 mm/hr 0.00 in0.0 mm
04:59 AM 37.1°F2.8°C 33.2°F0.7°C 86% 0.7 mph SW1.1 kmh SW 2.5 mph4.0 kmh 29.97 in1014.9 mb 0.00 in0.0 mm 0.00 in/hr0.0 mm/hr 0.00 in0.0 mm
05:04 AM 36.9°F2.7°C 32.8°F0.4°C 85% 0.3 mph NW0.5 kmh NW 1.1 mph1.8 kmh 29.97 in1014.9 mb 0.00 in0.0 mm 0.00 in/hr0.0 mm/hr 0.00 in0.0 mm
05:09 AM 36.7°F2.6°C 32.9°F0.5°C 86% 3.9 mph WSW6.3 kmh WSW 4.5 mph7.2 kmh 29.97 in1014.9 mb 0.00 in0.0 mm 0.00 in/hr0.0 mm/hr 0.00 in0.0 mm
05:15 AM 36.7°F2.6°C 32.6°F0.3°C 85% 1.1 mph S1.8 kmh S 4.5 mph7.2 kmh 29.98 in1015.2 mb 0.00 in0.0 mm 0.00 in/hr0.0 mm/hr 0.00 in0.0 mm
05:20 AM 36.5°F2.5°C 32.4°F0.2°C 85% 1.0 mph SW1.6 kmh SW 2.7 mph4.3 kmh 29.98 in1015.2 mb 0.00 in0.0 mm 0.00 in/hr0.0 mm/hr 0.00 in0.0 mm
05:25 AM 36.5°F2.5°C 32.4°F0.2°C 85% 2.5 mph SW4.0 kmh SW 3.4 mph5.5 kmh 29.98 in1015.2 mb 0.00 in0.0 mm 0.00 in/hr0.0 mm/hr 0.00 in0.0 mm
05:30 AM 36.4°F2.4°C 32.2°F0.1°C 85% 0.9 mph SW1.4 kmh SW 3.4 mph5.5 kmh 29.98 in1015.2 mb 0.00 in0.0 mm 0.00 in/hr0.0 mm/hr 0.00 in0.0 mm
05:35 AM 36.4°F2.4°C 32.5°F0.3°C 86% 1.7 mph SW2.7 kmh SW 2.0 mph3.2 kmh 29.98 in1015.2 mb 0.00 in0.0 mm 0.00 in/hr0.0 mm/hr 0.00 in0.0 mm
05:40 AM 36.2°F2.3°C 32.3°F0.2°C 86% 2.3 mph WSW3.7 kmh WSW 3.6 mph5.8 kmh 29.98 in1015.2 mb 0.00 in0.0 mm 0.00 in/hr0.0 mm/hr 0.00 in0.0 mm
05:46 AM 36.0°F2.2°C 32.1°F0.1°C 86% 1.5 mph SW2.4 kmh SW 3.6 mph5.8 kmh 29.98 in1015.2 mb 0.00 in0.0 mm 0.00 in/hr0.0 mm/hr 0.00 in0.0 mm
05:50 AM 36.0°F2.2°C 32.1°F0.1°C 86% 1.1 mph S1.8 kmh S 4.0 mph6.4 kmh 29.98 in1015.2 mb 0.00 in0.0 mm 0.00 in/hr0.0 mm/hr 0.00 in0.0 mm
05:55 AM 35.8°F2.1°C 32.0°F0.0°C 86% 1.6 mph SW2.6 kmh SW 4.0 mph6.4 kmh 29.98 in1015.2 mb 0.00 in0.0 mm 0.00 in/hr0.0 mm/hr 0.00 in0.0 mm
06:01 AM 35.8°F2.1°C 32.0°F0.0°C 86% 1.0 mph WSW1.6 kmh WSW 2.2 mph3.5 kmh 29.98 in1015.2 mb 0.00 in0.0 mm 0.00 in/hr0.0 mm/hr 0.00 in0.0 mm
06:06 AM 35.8°F2.1°C 32.0°F0.0°C 86% 0.8 mph SW1.3 kmh SW 1.8 mph2.9 kmh 29.98 in1015.2 mb 0.00 in0.0 mm 0.00 in/hr0.0 mm/hr 0.00 in0.0 mm
06:11 AM 35.8°F2.1°C 32.2°F0.1°C 87% 1.0 mph WSW1.6 kmh WSW 1.8 mph2.9 kmh 29.99 in1015.6 mb 0.00 in0.0 mm 0.00 in/hr0.0 mm/hr 0.00 in0.0 mm
06:16 AM 35.8°F2.1°C 32.2°F0.1°C 87% 1.7 mph SW2.7 kmh SW 2.5 mph4.0 kmh 29.99 in1015.6 mb 0.00 in0.0 mm 0.00 in/hr0.0 mm/hr 0.00 in0.0 mm
06:21 AM 36.0°F2.2°C 32.4°F0.2°C 87% 1.9 mph SW3.1 kmh SW 2.5 mph4.0 kmh 29.99 in1015.6 mb 0.00 in0.0 mm 0.00 in/hr0.0 mm/hr 0.00 in0.0 mm
06:26 AM 36.0°F2.2°C 32.4°F0.2°C 87% 1.4 mph SW2.3 kmh SW 2.5 mph4.0 kmh 29.99 in1015.6 mb 0.00 in0.0 mm 0.00 in/hr0.0 mm/hr 0.00 in0.0 mm
06:32 AM 35.8°F2.1°C 32.2°F0.1°C 87% 1.8 mph SW2.9 kmh SW 2.5 mph4.0 kmh 30.00 in1015.9 mb 0.00 in0.0 mm 0.00 in/hr0.0 mm/hr 0.00 in0.0 mm
06:37 AM 35.8°F2.1°C 32.2°F0.1°C 87% 2.7 mph SW4.3 kmh SW 3.1 mph5.0 kmh 30.00 in1015.9 mb 0.00 in0.0 mm 0.00 in/hr0.0 mm/hr 0.00 in0.0 mm
06:43 AM 35.6°F2.0°C 31.8°F-0.1°C 86% 2.3 mph WSW3.7 kmh WSW 3.4 mph5.5 kmh 30.00 in1015.9 mb 0.00 in0.0 mm 0.00 in/hr0.0 mm/hr 0.00 in0.0 mm
06:48 AM 35.3°F1.8°C 31.1°F-0.5°C 85% 2.8 mph WSW4.5 kmh WSW 4.0 mph6.4 kmh 30.00 in1015.9 mb 0.00 in0.0 mm 0.00 in/hr0.0 mm/hr 0.00 in0.0 mm
06:53 AM 35.1°F1.7°C 31.2°F-0.4°C 86% 2.8 mph WSW4.5 kmh WSW 4.0 mph6.4 kmh 30.00 in1015.9 mb 0.00 in0.0 mm 0.00 in/hr0.0 mm/hr 0.00 in0.0 mm
06:58 AM 35.3°F1.8°C 31.4°F-0.3°C 86% 1.2 mph W1.9 kmh W 4.0 mph6.4 kmh 30.00 in1015.9 mb 0.00 in0.0 mm 0.00 in/hr0.0 mm/hr 0.00 in0.0 mm
07:04 AM 35.3°F1.8°C 31.4°F-0.3°C 86% 1.9 mph WSW3.1 kmh WSW 3.4 mph5.5 kmh 30.00 in1015.9 mb 0.00 in0.0 mm 0.00 in/hr0.0 mm/hr 0.00 in0.0 mm
07:09 AM 35.3°F1.8°C 31.7°F-0.2°C 87% 1.9 mph WNW3.1 kmh WNW 3.4 mph5.5 kmh 30.00 in1015.9 mb 0.00 in0.0 mm 0.00 in/hr0.0 mm/hr 0.00 in0.0 mm
07:15 AM 35.6°F2.0°C 32.0°F0.0°C 87% 1.8 mph W2.9 kmh W 5.6 mph9.0 kmh 30.00 in1015.9 mb 0.00 in0.0 mm 0.00 in/hr0.0 mm/hr 0.00 in0.0 mm
07:20 AM 35.6°F2.0°C 32.4°F0.2°C 88% 2.7 mph W4.3 kmh W 6.0 mph9.7 kmh 30.01 in1016.3 mb 0.00 in0.0 mm 0.00 in/hr0.0 mm/hr 0.00 in0.0 mm
07:26 AM 35.6°F2.0°C 32.0°F0.0°C 87% 2.5 mph WSW4.0 kmh WSW 6.0 mph9.7 kmh 30.01 in1016.3 mb 0.00 in0.0 mm 0.00 in/hr0.0 mm/hr 0.00 in0.0 mm
07:31 AM 35.3°F1.8°C 31.4°F-0.3°C 86% 2.2 mph WNW3.5 kmh WNW 4.0 mph6.4 kmh 30.01 in1016.3 mb 0.00 in0.0 mm 0.00 in/hr0.0 mm/hr 0.00 in0.0 mm
07:36 AM 35.1°F1.7°C 31.2°F-0.4°C 86% 2.5 mph WSW4.0 kmh WSW 4.5 mph7.2 kmh 30.01 in1016.3 mb 0.00 in0.0 mm 0.00 in/hr0.0 mm/hr 0.00 in0.0 mm
07:41 AM 34.7°F1.5°C 30.9°F-0.6°C 86% 1.3 mph SW2.1 kmh SW 4.5 mph7.2 kmh 30.01 in1016.3 mb 0.00 in0.0 mm 0.00 in/hr0.0 mm/hr 0.00 in0.0 mm
07:46 AM 34.4°F1.3°C 30.5°F-0.8°C 86% 1.4 mph SW2.3 kmh SW 3.4 mph5.5 kmh 30.02 in1016.6 mb 0.00 in0.0 mm 0.00 in/hr0.0 mm/hr 0.00 in0.0 mm
07:51 AM 34.2°F1.2°C 30.3°F-0.9°C 86% 0.2 mph WSW0.3 kmh WSW 3.1 mph5.0 kmh 30.02 in1016.6 mb 0.00 in0.0 mm 0.00 in/hr0.0 mm/hr 0.00 in0.0 mm
07:57 AM 33.8°F1.0°C 30.0°F-1.1°C 86% 2.2 mph SW3.5 kmh SW 2.5 mph4.0 kmh 30.02 in1016.6 mb 0.00 in0.0 mm 0.00 in/hr0.0 mm/hr 0.00 in0.0 mm
08:03 AM 33.7°F0.9°C 29.8°F-1.2°C 86% 1.3 mph SW2.1 kmh SW 2.5 mph4.0 kmh 30.02 in1016.6 mb 0.00 in0.0 mm 0.00 in/hr0.0 mm/hr 0.00 in0.0 mm
08:09 AM 33.5°F0.8°C 30.0°F-1.1°C 87% 1.6 mph W2.6 kmh W 2.5 mph4.0 kmh 30.02 in1016.6 mb 0.00 in0.0 mm 0.00 in/hr0.0 mm/hr 0.00 in0.0 mm
08:14 AM 33.5°F0.8°C 29.7°F-1.3°C 86% 1.3 mph SSW2.1 kmh SSW 2.5 mph4.0 kmh 30.03 in1016.9 mb 0.00 in0.0 mm 0.00 in/hr0.0 mm/hr 0.00 in0.0 mm
08:20 AM 33.3°F0.7°C 29.8°F-1.2°C 87% 1.4 mph SW2.3 kmh SW 2.9 mph4.7 kmh 30.03 in1016.9 mb 0.00 in0.0 mm 0.00 in/hr0.0 mm/hr 0.00 in0.0 mm
08:25 AM 33.3°F0.7°C 29.8°F-1.2°C 87% 1.0 mph SW1.6 kmh SW 2.9 mph4.7 kmh 30.03 in1016.9 mb 0.00 in0.0 mm 0.00 in/hr0.0 mm/hr 0.00 in0.0 mm
08:31 AM 33.1°F0.6°C 29.6°F-1.3°C 87% 1.3 mph WSW2.1 kmh WSW 1.8 mph2.9 kmh 30.03 in1016.9 mb 0.00 in0.0 mm 0.00 in/hr0.0 mm/hr 0.00 in0.0 mm
08:37 AM 33.3°F0.7°C 29.8°F-1.2°C 87% 0.7 mph WSW1.1 kmh WSW 2.0 mph3.2 kmh 30.03 in1016.9 mb 0.00 in0.0 mm 0.00 in/hr0.0 mm/hr 0.00 in0.0 mm
08:42 AM 33.3°F0.7°C 29.8°F-1.2°C 87% Calm Calm 2.0 mph3.2 kmh 30.04 in1017.3 mb 0.00 in0.0 mm 0.00 in/hr0.0 mm/hr 0.00 in0.0 mm
08:48 AM 33.1°F0.6°C 29.6°F-1.3°C 87% 0.4 mph W0.6 kmh W 0.9 mph1.4 kmh 30.04 in1017.3 mb 0.00 in0.0 mm 0.00 in/hr0.0 mm/hr 0.00 in0.0 mm
08:53 AM 33.1°F0.6°C 29.6°F-1.3°C 87% 1.0 mph WSW1.6 kmh WSW 1.6 mph2.6 kmh 30.04 in1017.3 mb 0.00 in0.0 mm 0.00 in/hr0.0 mm/hr 0.00 in0.0 mm
08:58 AM 33.1°F0.6°C 29.3°F-1.5°C 86% 1.9 mph WSW3.1 kmh WSW 2.5 mph4.0 kmh 30.04 in1017.3 mb 0.00 in0.0 mm 0.00 in/hr0.0 mm/hr 0.00 in0.0 mm
09:04 AM 32.8°F0.4°C 29.0°F-1.7°C 86% 1.9 mph W3.1 kmh W 3.4 mph5.5 kmh 30.04 in1017.3 mb 0.00 in0.0 mm 0.00 in/hr0.0 mm/hr 0.00 in0.0 mm
09:09 AM 32.8°F0.4°C 29.0°F-1.7°C 86% 0.3 mph SW0.5 kmh SW 3.4 mph5.5 kmh 30.05 in1017.6 mb 0.00 in0.0 mm 0.00 in/hr0.0 mm/hr 0.00 in0.0 mm
09:14 AM 32.9°F0.5°C 29.4°F-1.4°C 87% 0.5 mph W0.8 kmh W 2.0 mph3.2 kmh 30.05 in1017.6 mb 0.00 in0.0 mm 0.00 in/hr0.0 mm/hr 0.00 in0.0 mm
09:19 AM 33.1°F0.6°C 29.6°F-1.3°C 87% 1.0 mph WSW1.6 kmh WSW 1.6 mph2.6 kmh 30.05 in1017.6 mb 0.00 in0.0 mm 0.00 in/hr0.0 mm/hr 0.00 in0.0 mm
09:24 AM 33.5°F0.8°C 30.0°F-1.1°C 87% 0.4 mph WSW0.6 kmh WSW 2.2 mph3.5 kmh 30.06 in1017.9 mb 0.00 in0.0 mm 0.00 in/hr0.0 mm/hr 0.00 in0.0 mm
09:29 AM 33.7°F0.9°C 30.2°F-1.0°C 87% 0.7 mph WSW1.1 kmh WSW 2.2 mph3.5 kmh 30.05 in1017.6 mb 0.00 in0.0 mm 0.00 in/hr0.0 mm/hr 0.00 in0.0 mm
09:34 AM 34.2°F1.2°C 30.6°F-0.8°C 87% 0.9 mph W1.4 kmh W 1.3 mph2.1 kmh 30.05 in1017.6 mb 0.00 in0.0 mm 0.00 in/hr0.0 mm/hr 0.00 in0.0 mm
09:39 AM 34.2°F1.2°C 31.2°F-0.4°C 89% 0.7 mph NNW1.1 kmh NNW 1.8 mph2.9 kmh 30.05 in1017.6 mb 0.00 in0.0 mm 0.00 in/hr0.0 mm/hr 0.00 in0.0 mm
09:44 AM 34.4°F1.3°C 31.4°F-0.3°C 89% 1.0 mph NW1.6 kmh NW 1.8 mph2.9 kmh 30.05 in1017.6 mb 0.00 in0.0 mm 0.00 in/hr0.0 mm/hr 0.00 in0.0 mm
09:49 AM 34.4°F1.3°C 31.2°F-0.4°C 88% 0.6 mph NE1.0 kmh NE 1.8 mph2.9 kmh 30.06 in1017.9 mb 0.00 in0.0 mm 0.00 in/hr0.0 mm/hr 0.00 in0.0 mm
09:55 AM 34.2°F1.2°C 31.2°F-0.4°C 89% 2.8 mph N4.5 kmh N 3.4 mph5.5 kmh 30.06 in1017.9 mb 0.00 in0.0 mm 0.00 in/hr0.0 mm/hr 0.00 in0.0 mm
10:01 AM 34.0°F1.1°C 31.1°F-0.5°C 89% 0.6 mph NW1.0 kmh NW 3.4 mph5.5 kmh 30.06 in1017.9 mb 0.00 in0.0 mm 0.00 in/hr0.0 mm/hr 0.00 in0.0 mm
10:06 AM 34.2°F1.2°C 31.2°F-0.4°C 89% 1.7 mph NW2.7 kmh NW 2.5 mph4.0 kmh 30.06 in1017.9 mb 0.00 in0.0 mm 0.00 in/hr0.0 mm/hr 0.00 in0.0 mm
10:11 AM 34.4°F1.3°C 31.4°F-0.3°C 89% 1.4 mph NNW2.3 kmh NNW 2.5 mph4.0 kmh 30.06 in1017.9 mb 0.00 in0.0 mm 0.00 in/hr0.0 mm/hr 0.00 in0.0 mm
10:16 AM 34.4°F1.3°C 31.4°F-0.3°C 89% 0.6 mph N1.0 kmh N 2.2 mph3.5 kmh 30.07 in1018.3 mb 0.00 in0.0 mm 0.00 in/hr0.0 mm/hr 0.00 in0.0 mm
10:20 AM 34.4°F1.3°C 31.4°F-0.3°C 89% 0.2 mph 0.3 kmh 2.0 mph3.2 kmh 30.07 in1018.3 mb 0.00 in0.0 mm 0.00 in/hr0.0 mm/hr 0.00 in0.0 mm
10:26 AM 34.2°F1.2°C 31.2°F-0.4°C 89% 1.1 mph WNW1.8 kmh WNW 1.8 mph2.9 kmh 30.07 in1018.3 mb 0.00 in0.0 mm 0.00 in/hr0.0 mm/hr 0.00 in0.0 mm
10:31 AM 34.6°F1.4°C 31.6°F-0.2°C 89% 0.1 mph NE0.2 kmh NE 1.8 mph2.9 kmh 30.07 in1018.3 mb 0.00 in0.0 mm 0.00 in/hr0.0 mm/hr 0.00 in0.0 mm
10:36 AM 35.1°F1.7°C 32.1°F0.1°C 89% 1.0 mph WNW1.6 kmh WNW 1.3 mph2.1 kmh 30.07 in1018.3 mb 0.00 in0.0 mm 0.00 in/hr0.0 mm/hr 0.00 in0.0 mm
10:42 AM 35.1°F1.7°C 32.1°F0.1°C 89% 0.4 mph 0.6 kmh 1.1 mph1.8 kmh 30.07 in1018.3 mb 0.00 in0.0 mm 0.00 in/hr0.0 mm/hr 0.00 in0.0 mm
10:48 AM 35.1°F1.7°C 31.9°F-0.1°C 88% Calm Calm 0.9 mph1.4 kmh 30.07 in1018.3 mb 0.00 in0.0 mm 0.00 in/hr0.0 mm/hr 0.00 in0.0 mm
10:53 AM 35.1°F1.7°C 32.1°F0.1°C 89% 1.7 mph N2.7 kmh N 1.8 mph2.9 kmh 30.07 in1018.3 mb 0.00 in0.0 mm 0.00 in/hr0.0 mm/hr 0.00 in0.0 mm
10:58 AM 34.7°F1.5°C 31.8°F-0.1°C 89% 0.3 mph N0.5 kmh N 2.5 mph4.0 kmh 30.07 in1018.3 mb 0.00 in0.0 mm 0.00 in/hr0.0 mm/hr 0.00 in0.0 mm
11:03 AM 34.9°F1.6°C 32.0°F0.0°C 89% 0.5 mph N0.8 kmh N 2.5 mph4.0 kmh 30.07 in1018.3 mb 0.00 in0.0 mm 0.00 in/hr0.0 mm/hr 0.00 in0.0 mm
11:08 AM 35.1°F1.7°C 32.1°F0.1°C 89% 0.6 mph NW1.0 kmh NW 2.5 mph4.0 kmh 30.07 in1018.3 mb 0.00 in0.0 mm 0.00 in/hr0.0 mm/hr 0.00 in0.0 mm
11:14 AM 34.9°F1.6°C 31.7°F-0.2°C 88% 1.1 mph N1.8 kmh N 2.7 mph4.3 kmh 30.07 in1018.3 mb 0.00 in0.0 mm 0.00 in/hr0.0 mm/hr 0.00 in0.0 mm
11:19 AM 34.9°F1.6°C 31.7°F-0.2°C 88% 0.6 mph NW1.0 kmh NW 2.7 mph4.3 kmh 30.08 in1018.6 mb 0.00 in0.0 mm 0.00 in/hr0.0 mm/hr 0.00 in0.0 mm
11:24 AM 34.7°F1.5°C 31.5°F-0.3°C 88% 0.4 mph NNW0.6 kmh NNW 2.0 mph3.2 kmh 30.08 in1018.6 mb 0.00 in0.0 mm 0.00 in/hr0.0 mm/hr 0.00 in0.0 mm
11:30 AM 34.9°F1.6°C 32.0°F0.0°C 89% 0.4 mph NW0.6 kmh NW 0.9 mph1.4 kmh 30.08 in1018.6 mb 0.00 in0.0 mm 0.00 in/hr0.0 mm/hr 0.00 in0.0 mm
11:35 AM 34.7°F1.5°C 31.8°F-0.1°C 89% 0.6 mph N1.0 kmh N 1.6 mph2.6 kmh 30.08 in1018.6 mb 0.00 in0.0 mm 0.00 in/hr0.0 mm/hr 0.00 in0.0 mm
11:40 AM 34.9°F1.6°C 32.0°F0.0°C 89% 0.9 mph NNW1.4 kmh NNW 1.8 mph2.9 kmh 30.07 in1018.3 mb 0.00 in0.0 mm 0.00 in/hr0.0 mm/hr 0.00 in0.0 mm
11:45 AM 35.3°F1.8°C 32.3°F0.2°C 89% 0.6 mph N1.0 kmh N 2.9 mph4.7 kmh 30.07 in1018.3 mb 0.00 in0.0 mm 0.00 in/hr0.0 mm/hr 0.00 in0.0 mm
11:50 AM 35.3°F1.8°C 32.3°F0.2°C 89% 0.5 mph NW0.8 kmh NW 2.9 mph4.7 kmh 30.07 in1018.3 mb 0.00 in0.0 mm 0.00 in/hr0.0 mm/hr 0.00 in0.0 mm
11:56 AM 35.5°F1.9°C 32.2°F0.1°C 88% 1.1 mph 1.8 kmh 2.9 mph4.7 kmh 30.07 in1018.3 mb 0.00 in0.0 mm 0.00 in/hr0.0 mm/hr 0.00 in0.0 mm
12:01 PM 35.6°F2.0°C 32.4°F0.2°C 88% 2.4 mph NNE3.9 kmh NNE 3.1 mph5.0 kmh 30.07 in1018.3 mb 0.00 in0.0 mm 0.00 in/hr0.0 mm/hr 0.00 in0.0 mm
12:06 PM 35.8°F2.1°C 32.6°F0.3°C 88% 0.1 mph W0.2 kmh W 3.1 mph5.0 kmh 30.07 in1018.3 mb 0.00 in0.0 mm 0.00 in/hr0.0 mm/hr 0.00 in0.0 mm
12:11 PM 36.4°F2.4°C 32.8°F0.4°C 87% 0.5 mph NE0.8 kmh NE 2.5 mph4.0 kmh 30.07 in1018.3 mb 0.00 in0.0 mm 0.00 in/hr0.0 mm/hr 0.00 in0.0 mm
12:17 PM 36.7°F2.6°C 33.5°F0.8°C 88% 1.3 mph NNW2.1 kmh NNW 2.2 mph3.5 kmh 30.07 in1018.3 mb 0.00 in0.0 mm 0.00 in/hr0.0 mm/hr 0.00 in0.0 mm
12:22 PM 36.7°F2.6°C 33.1°F0.6°C 87% 0.7 mph W1.1 kmh W 2.2 mph3.5 kmh 30.06 in1017.9 mb 0.00 in0.0 mm 0.00 in/hr0.0 mm/hr 0.00 in0.0 mm
12:27 PM 37.1°F2.8°C 33.5°F0.8°C 87% 1.5 mph NE2.4 kmh NE 2.0 mph3.2 kmh 30.07 in1018.3 mb 0.00 in0.0 mm 0.00 in/hr0.0 mm/hr 0.00 in0.0 mm
12:32 PM 37.4°F3.0°C 33.8°F1.0°C 87% 0.8 mph NE1.3 kmh NE 2.0 mph3.2 kmh 30.06 in1017.9 mb 0.00 in0.0 mm 0.00 in/hr0.0 mm/hr 0.00 in0.0 mm
12:38 PM 37.8°F3.2°C 33.9°F1.1°C 86% 0.6 mph NW1.0 kmh NW 1.6 mph2.6 kmh 30.06 in1017.9 mb 0.00 in0.0 mm 0.00 in/hr0.0 mm/hr 0.00 in0.0 mm
12:43 PM 38.0°F3.3°C 34.1°F1.2°C 86% 0.9 mph N1.4 kmh N 1.1 mph1.8 kmh 30.06 in1017.9 mb 0.00 in0.0 mm 0.00 in/hr0.0 mm/hr 0.00 in0.0 mm
12:48 PM 38.0°F3.3°C 33.8°F1.0°C 85% 0.9 mph N1.4 kmh N 2.2 mph3.5 kmh 30.06 in1017.9 mb 0.00 in0.0 mm 0.00 in/hr0.0 mm/hr 0.00 in0.0 mm
12:53 PM 38.3°F3.5°C 34.5°F1.4°C 86% 0.8 mph S1.3 kmh S 2.2 mph3.5 kmh 30.06 in1017.9 mb 0.00 in0.0 mm 0.00 in/hr0.0 mm/hr 0.00 in0.0 mm
12:59 PM 39.6°F4.2°C 35.7°F2.1°C 86% 0.7 mph SW1.1 kmh SW 3.1 mph5.0 kmh 30.06 in1017.9 mb 0.00 in0.0 mm 0.00 in/hr0.0 mm/hr 0.00 in0.0 mm
01:04 PM 40.1°F4.5°C 34.7°F1.5°C 81% 2.2 mph N3.5 kmh N 4.0 mph6.4 kmh 30.05 in1017.6 mb 0.00 in0.0 mm 0.00 in/hr0.0 mm/hr 0.00 in0.0 mm
01:10 PM 40.3°F4.6°C 35.2°F1.8°C 82% 1.6 mph WSW2.6 kmh WSW 4.0 mph6.4 kmh 30.06 in1017.9 mb 0.00 in0.0 mm 0.00 in/hr0.0 mm/hr 0.00 in0.0 mm
01:15 PM 40.7°F4.8°C 35.6°F2.0°C 82% 0.6 mph N1.0 kmh N 2.2 mph3.5 kmh 30.06 in1017.9 mb 0.00 in0.0 mm 0.00 in/hr0.0 mm/hr 0.00 in0.0 mm
01:20 PM 41.0°F5.0°C 35.6°F2.0°C 81% 1.2 mph NW1.9 kmh NW 2.5 mph4.0 kmh 30.06 in1017.9 mb 0.00 in0.0 mm 0.00 in/hr0.0 mm/hr 0.00 in0.0 mm
01:25 PM 41.6°F5.3°C 35.8°F2.1°C 80% 2.2 mph WNW3.5 kmh WNW 3.4 mph5.5 kmh 30.06 in1017.9 mb 0.00 in0.0 mm 0.00 in/hr0.0 mm/hr 0.00 in0.0 mm
01:30 PM 41.8°F5.4°C 35.6°F2.0°C 79% 1.3 mph NW2.1 kmh NW 3.4 mph5.5 kmh 30.06 in1017.9 mb 0.00 in0.0 mm 0.00 in/hr0.0 mm/hr 0.00 in0.0 mm
01:36 PM 41.8°F5.4°C 36.0°F2.2°C 80% 1.5 mph W2.4 kmh W 3.1 mph5.0 kmh 30.06 in1017.9 mb 0.00 in0.0 mm 0.00 in/hr0.0 mm/hr 0.00 in0.0 mm
01:42 PM 42.5°F5.8°C 36.7°F2.6°C 80% 1.8 mph WNW2.9 kmh WNW 2.5 mph4.0 kmh 30.06 in1017.9 mb 0.00 in0.0 mm 0.00 in/hr0.0 mm/hr 0.00 in0.0 mm
01:47 PM 43.0°F6.1°C 36.9°F2.7°C 79% 1.4 mph WNW2.3 kmh WNW 3.4 mph5.5 kmh 30.06 in1017.9 mb 0.00 in0.0 mm 0.00 in/hr0.0 mm/hr 0.00 in0.0 mm
01:52 PM 43.4°F6.3°C 37.3°F2.9°C 79% 3.7 mph SW6.0 kmh SW 5.4 mph8.7 kmh 30.06 in1017.9 mb 0.00 in0.0 mm 0.00 in/hr0.0 mm/hr 0.00 in0.0 mm
01:58 PM 43.4°F6.3°C 36.6°F2.6°C 77% 2.0 mph NW3.2 kmh NW 5.4 mph8.7 kmh 30.06 in1017.9 mb 0.00 in0.0 mm 0.00 in/hr0.0 mm/hr 0.00 in0.0 mm
02:04 PM 42.8°F6.0°C 36.1°F2.3°C 77% 1.4 mph N2.3 kmh N 3.4 mph5.5 kmh 30.06 in1017.9 mb 0.00 in0.0 mm 0.00 in/hr0.0 mm/hr 0.00 in0.0 mm
02:09 PM 42.5°F5.8°C 36.1°F2.3°C 78% 2.2 mph NW3.5 kmh NW 3.8 mph6.1 kmh 30.06 in1017.9 mb 0.00 in0.0 mm 0.00 in/hr0.0 mm/hr 0.00 in0.0 mm
02:15 PM 42.1°F5.6°C 36.0°F2.2°C 79% 2.8 mph WNW4.5 kmh WNW 4.7 mph7.6 kmh 30.06 in1017.9 mb 0.00 in0.0 mm 0.00 in/hr0.0 mm/hr 0.00 in0.0 mm
02:20 PM 42.7°F5.9°C 36.5°F2.5°C 79% 1.8 mph NW2.9 kmh NW 4.7 mph7.6 kmh 30.06 in1017.9 mb 0.00 in0.0 mm 0.00 in/hr0.0 mm/hr 0.00 in0.0 mm
02:26 PM 43.0°F6.1°C 36.3°F2.4°C 77% 3.4 mph NW5.5 kmh NW 5.6 mph9.0 kmh 30.07 in1018.3 mb 0.00 in0.0 mm 0.00 in/hr0.0 mm/hr 0.00 in0.0 mm
02:32 PM 42.3°F5.7°C 35.9°F2.2°C 78% 2.0 mph NW3.2 kmh NW 5.6 mph9.0 kmh 30.07 in1018.3 mb 0.00 in0.0 mm 0.00 in/hr0.0 mm/hr 0.00 in0.0 mm
02:37 PM 41.8°F5.4°C 35.6°F2.0°C 79% 2.5 mph NW4.0 kmh NW 6.5 mph10.5 kmh 30.07 in1018.3 mb 0.00 in0.0 mm 0.00 in/hr0.0 mm/hr 0.00 in0.0 mm
02:43 PM 41.0°F5.0°C 34.9°F1.6°C 79% 0.9 mph N1.4 kmh N 6.5 mph10.5 kmh 30.07 in1018.3 mb 0.00 in0.0 mm 0.00 in/hr0.0 mm/hr 0.00 in0.0 mm
02:48 PM 40.5°F4.7°C 34.8°F1.6°C 80% 2.4 mph WNW3.9 kmh WNW 3.6 mph5.8 kmh 30.06 in1017.9 mb 0.00 in0.0 mm 0.00 in/hr0.0 mm/hr 0.00 in0.0 mm
02:54 PM 40.0°F4.4°C 34.3°F1.3°C 80% 2.2 mph NW3.5 kmh NW 4.7 mph7.6 kmh 30.06 in1017.9 mb 0.00 in0.0 mm 0.00 in/hr0.0 mm/hr 0.00 in0.0 mm
03:00 PM 39.8°F4.3°C 34.1°F1.2°C 80% 2.9 mph NW4.7 kmh NW 4.7 mph7.6 kmh 30.07 in1018.3 mb 0.00 in0.0 mm 0.00 in/hr0.0 mm/hr 0.00 in0.0 mm
03:05 PM 40.0°F4.4°C 34.6°F1.4°C 81% 1.5 mph NW2.4 kmh NW 4.7 mph7.6 kmh 30.07 in1018.3 mb 0.00 in0.0 mm 0.00 in/hr0.0 mm/hr 0.00 in0.0 mm
03:10 PM 40.1°F4.5°C 35.1°F1.7°C 82% 3.6 mph W5.8 kmh W 4.0 mph6.4 kmh 30.07 in1018.3 mb 0.00 in0.0 mm 0.00 in/hr0.0 mm/hr 0.00 in0.0 mm
03:15 PM 40.1°F4.5°C 34.7°F1.5°C 81% 1.5 mph N2.4 kmh N 4.7 mph7.6 kmh 30.07 in1018.3 mb 0.00 in0.0 mm 0.00 in/hr0.0 mm/hr 0.00 in0.0 mm
03:20 PM 39.8°F4.3°C 34.1°F1.2°C 80% 2.2 mph NW3.5 kmh NW 5.4 mph8.7 kmh 30.07 in1018.3 mb 0.00 in0.0 mm 0.00 in/hr0.0 mm/hr 0.00 in0.0 mm
03:26 PM 40.0°F4.4°C 34.3°F1.3°C 80% 2.2 mph N3.5 kmh N 5.4 mph8.7 kmh 30.07 in1018.3 mb 0.00 in0.0 mm 0.00 in/hr0.0 mm/hr 0.00 in0.0 mm
03:31 PM 39.2°F4.0°C 33.9°F1.1°C 81% 2.0 mph N3.2 kmh N 5.4 mph8.7 kmh 30.07 in1018.3 mb 0.00 in0.0 mm 0.00 in/hr0.0 mm/hr 0.00 in0.0 mm
03:36 PM 39.6°F4.2°C 34.6°F1.4°C 82% 1.4 mph NW2.3 kmh NW 5.4 mph8.7 kmh 30.07 in1018.3 mb 0.00 in0.0 mm 0.00 in/hr0.0 mm/hr 0.00 in0.0 mm
03:41 PM 39.8°F4.3°C 34.8°F1.6°C 82% 1.9 mph N3.1 kmh N 5.4 mph8.7 kmh 30.06 in1017.9 mb 0.00 in0.0 mm 0.00 in/hr0.0 mm/hr 0.00 in0.0 mm
03:47 PM 40.0°F4.4°C 34.6°F1.4°C 81% 1.8 mph N2.9 kmh N 5.4 mph8.7 kmh 30.06 in1017.9 mb 0.00 in0.0 mm 0.00 in/hr0.0 mm/hr 0.00 in0.0 mm
03:52 PM 39.8°F4.3°C 34.1°F1.2°C 80% 2.3 mph NW3.7 kmh NW 4.0 mph6.4 kmh 30.06 in1017.9 mb 0.00 in0.0 mm 0.00 in/hr0.0 mm/hr 0.00 in0.0 mm
03:57 PM 40.0°F4.4°C 34.3°F1.3°C 80% 0.8 mph NW1.3 kmh NW 4.0 mph6.4 kmh 30.06 in1017.9 mb 0.00 in0.0 mm 0.00 in/hr0.0 mm/hr 0.00 in0.0 mm
04:02 PM 40.3°F4.6°C 34.9°F1.6°C 81% 0.5 mph SW0.8 kmh SW 3.8 mph6.1 kmh 30.06 in1017.9 mb 0.00 in0.0 mm 0.00 in/hr0.0 mm/hr 0.00 in0.0 mm
04:08 PM 40.3°F4.6°C 34.9°F1.6°C 81% 1.2 mph N1.9 kmh N 3.4 mph5.5 kmh 30.06 in1017.9 mb 0.00 in0.0 mm 0.00 in/hr0.0 mm/hr 0.00 in0.0 mm
04:13 PM 40.1°F4.5°C 34.7°F1.5°C 81% 1.0 mph 1.6 kmh 4.0 mph6.4 kmh 30.06 in1017.9 mb 0.00 in0.0 mm 0.00 in/hr0.0 mm/hr 0.00 in0.0 mm
04:18 PM 40.3°F4.6°C 34.9°F1.6°C 81% 1.2 mph NNW1.9 kmh NNW 4.0 mph6.4 kmh 30.06 in1017.9 mb 0.00 in0.0 mm 0.00 in/hr0.0 mm/hr 0.00 in0.0 mm
04:23 PM 40.1°F4.5°C 34.7°F1.5°C 81% 1.0 mph N1.6 kmh N 3.4 mph5.5 kmh 30.06 in1017.9 mb 0.00 in0.0 mm 0.00 in/hr0.0 mm/hr 0.00 in0.0 mm
04:28 PM 40.1°F4.5°C 35.1°F1.7°C 82% 1.1 mph N1.8 kmh N 3.4 mph5.5 kmh 30.06 in1017.9 mb 0.00 in0.0 mm 0.00 in/hr0.0 mm/hr 0.00 in0.0 mm
04:33 PM 40.1°F4.5°C 34.7°F1.5°C 81% 1.4 mph NW2.3 kmh NW 2.9 mph4.7 kmh 30.06 in1017.9 mb 0.00 in0.0 mm 0.00 in/hr0.0 mm/hr 0.00 in0.0 mm
04:39 PM 40.3°F4.6°C 35.2°F1.8°C 82% 2.2 mph NW3.5 kmh NW 4.7 mph7.6 kmh 30.06 in1017.9 mb 0.00 in0.0 mm 0.00 in/hr0.0 mm/hr 0.00 in0.0 mm
04:44 PM 40.5°F4.7°C 35.1°F1.7°C 81% 2.7 mph NW4.3 kmh NW 4.7 mph7.6 kmh 30.06 in1017.9 mb 0.00 in0.0 mm 0.00 in/hr0.0 mm/hr 0.00 in0.0 mm
04:49 PM 40.3°F4.6°C 35.2°F1.8°C 82% 2.4 mph NW3.9 kmh NW 4.0 mph6.4 kmh 30.06 in1017.9 mb 0.00 in0.0 mm 0.00 in/hr0.0 mm/hr 0.00 in0.0 mm
04:54 PM 40.3°F4.6°C 35.2°F1.8°C 82% 0.6 mph SW1.0 kmh SW 3.8 mph6.1 kmh 30.06 in1017.9 mb 0.00 in0.0 mm 0.00 in/hr0.0 mm/hr 0.00 in0.0 mm
05:00 PM 40.5°F4.7°C 35.4°F1.9°C 82% 0.5 mph NNW0.8 kmh NNW 1.8 mph2.9 kmh 30.06 in1017.9 mb 0.00 in0.0 mm 0.00 in/hr0.0 mm/hr 0.00 in0.0 mm
05:05 PM 40.7°F4.8°C 35.3°F1.8°C 81% 1.2 mph NNW1.9 kmh NNW 2.5 mph4.0 kmh 30.06 in1017.9 mb 0.00 in0.0 mm 0.00 in/hr0.0 mm/hr 0.00 in0.0 mm
05:10 PM 40.7°F4.8°C 35.3°F1.8°C 81% 0.6 mph N1.0 kmh N 2.5 mph4.0 kmh 30.06 in1017.9 mb 0.00 in0.0 mm 0.00 in/hr0.0 mm/hr 0.00 in0.0 mm
05:15 PM 40.9°F4.9°C 35.5°F1.9°C 81% 0.8 mph NNW1.3 kmh NNW 1.3 mph2.1 kmh 30.05 in1017.6 mb 0.00 in0.0 mm 0.00 in/hr0.0 mm/hr 0.00 in0.0 mm
05:20 PM 40.9°F4.9°C 35.5°F1.9°C 81% 0.2 mph WNW0.3 kmh WNW 1.1 mph1.8 kmh 30.05 in1017.6 mb 0.00 in0.0 mm 0.00 in/hr0.0 mm/hr 0.00 in0.0 mm
05:25 PM 40.9°F4.9°C 35.5°F1.9°C 81% 0.1 mph NNW0.2 kmh NNW 1.1 mph1.8 kmh 30.05 in1017.6 mb 0.00 in0.0 mm 0.00 in/hr0.0 mm/hr 0.00 in0.0 mm
05:30 PM 40.9°F4.9°C 35.5°F1.9°C 81% 0.2 mph N0.3 kmh N 1.1 mph1.8 kmh 30.05 in1017.6 mb 0.00 in0.0 mm 0.00 in/hr0.0 mm/hr 0.00 in0.0 mm
05:36 PM 40.7°F4.8°C 35.3°F1.8°C 81% 0.3 mph NNW0.5 kmh NNW 0.7 mph1.1 kmh 30.05 in1017.6 mb 0.00 in0.0 mm 0.00 in/hr0.0 mm/hr 0.00 in0.0 mm
05:41 PM 40.7°F4.8°C 35.3°F1.8°C 81% Calm Calm 1.1 mph1.8 kmh 30.05 in1017.6 mb 0.00 in0.0 mm 0.00 in/hr0.0 mm/hr 0.00 in0.0 mm
05:46 PM 40.7°F4.8°C 35.3°F1.8°C 81% 0.1 mph NNW0.2 kmh NNW 1.1 mph1.8 kmh 30.05 in1017.6 mb 0.00 in0.0 mm 0.00 in/hr0.0 mm/hr 0.00 in0.0 mm
05:51 PM 40.5°F4.7°C 35.1°F1.7°C 81% Calm Calm 0.9 mph1.4 kmh 30.06 in1017.9 mb 0.00 in0.0 mm 0.00 in/hr0.0 mm/hr 0.00 in0.0 mm
05:57 PM 40.3°F4.6°C 34.9°F1.6°C 81% 0.6 mph WSW1.0 kmh WSW 1.1 mph1.8 kmh 30.06 in1017.9 mb 0.00 in0.0 mm 0.00 in/hr0.0 mm/hr 0.00 in0.0 mm
06:02 PM 40.1°F4.5°C 34.5°F1.4°C 80% 0.7 mph SW1.1 kmh SW 1.1 mph1.8 kmh 30.06 in1017.9 mb 0.00 in0.0 mm 0.00 in/hr0.0 mm/hr 0.00 in0.0 mm
06:07 PM 40.0°F4.4°C 34.3°F1.3°C 80% 0.7 mph SW1.1 kmh SW 1.1 mph1.8 kmh 30.06 in1017.9 mb 0.00 in0.0 mm 0.00 in/hr0.0 mm/hr 0.00 in0.0 mm
06:13 PM 39.4°F4.1°C 33.9°F1.1°C 80% 0.1 mph NW0.2 kmh NW 0.7 mph1.1 kmh 30.06 in1017.9 mb 0.00 in0.0 mm 0.00 in/hr0.0 mm/hr 0.00 in0.0 mm
06:18 PM 39.2°F4.0°C 33.7°F0.9°C 80% Calm Calm 0.4 mph0.6 kmh 30.06 in1017.9 mb 0.00 in0.0 mm 0.00 in/hr0.0 mm/hr 0.00 in0.0 mm
06:23 PM 38.9°F3.8°C 33.3°F0.7°C 80% Calm Calm -- 30.06 in1017.9 mb 0.00 in0.0 mm 0.00 in/hr0.0 mm/hr 0.00 in0.0 mm
06:28 PM 38.5°F3.6°C 32.9°F0.5°C 80% Calm Calm -- 30.06 in1017.9 mb 0.00 in0.0 mm 0.00 in/hr0.0 mm/hr 0.00 in0.0 mm
06:33 PM 38.3°F3.5°C 33.0°F0.6°C 81% Calm Calm -- 30.06 in1017.9 mb 0.00 in0.0 mm 0.00 in/hr0.0 mm/hr 0.00 in0.0 mm
06:38 PM 38.0°F3.3°C 32.7°F0.4°C 81% Calm Calm -- 30.06 in1017.9 mb 0.00 in0.0 mm 0.00 in/hr0.0 mm/hr 0.00 in0.0 mm
06:44 PM 37.8°F3.2°C 32.5°F0.3°C 81% Calm Calm -- 30.06 in1017.9 mb 0.00 in0.0 mm 0.00 in/hr0.0 mm/hr 0.00 in0.0 mm
06:49 PM 37.3°F2.9°C 32.0°F0.0°C 81% 1.2 mph SW1.9 kmh SW 1.3 mph2.1 kmh 30.06 in1017.9 mb 0.00 in0.0 mm 0.00 in/hr0.0 mm/hr 0.00 in0.0 mm
06:58 PM 36.7°F2.6°C 31.4°F-0.3°C 81% 0.9 mph SW1.4 kmh SW 1.3 mph2.1 kmh 30.06 in1017.9 mb 0.00 in0.0 mm 0.00 in/hr0.0 mm/hr 0.00 in0.0 mm
07:06 PM 36.4°F2.4°C 31.3°F-0.4°C 82% 1.3 mph SW2.1 kmh SW 1.6 mph2.6 kmh 30.07 in1018.3 mb 0.00 in0.0 mm 0.00 in/hr0.0 mm/hr 0.00 in0.0 mm
07:11 PM 36.0°F2.2°C 31.0°F-0.6°C 82% 1.5 mph SW2.4 kmh SW 1.6 mph2.6 kmh 30.07 in1018.3 mb 0.00 in0.0 mm 0.00 in/hr0.0 mm/hr 0.00 in0.0 mm
07:16 PM 35.6°F2.0°C 30.6°F-0.8°C 82% 1.0 mph SW1.6 kmh SW 1.8 mph2.9 kmh 30.07 in1018.3 mb 0.00 in0.0 mm 0.00 in/hr0.0 mm/hr 0.00 in0.0 mm
07:22 PM 35.5°F1.9°C 30.8°F-0.7°C 83% Calm Calm 1.1 mph1.8 kmh 30.06 in1017.9 mb 0.00 in0.0 mm 0.00 in/hr0.0 mm/hr 0.00 in0.0 mm
07:29 PM 35.1°F1.7°C 30.4°F-0.9°C 83% Calm Calm -- 30.06 in1017.9 mb 0.00 in0.0 mm 0.00 in/hr0.0 mm/hr 0.00 in0.0 mm
07:34 PM 34.9°F1.6°C 30.3°F-0.9°C 83% 1.1 mph SW1.8 kmh SW 1.1 mph1.8 kmh 30.06 in1017.9 mb 0.00 in0.0 mm 0.00 in/hr0.0 mm/hr 0.00 in0.0 mm
07:40 PM 34.6°F1.4°C 29.9°F-1.2°C 83% 1.5 mph SW2.4 kmh SW 1.8 mph2.9 kmh 30.07 in1018.3 mb 0.00 in0.0 mm 0.00 in/hr0.0 mm/hr 0.00 in0.0 mm
07:45 PM 34.2°F1.2°C 29.5°F-1.4°C 83% 1.5 mph SW2.4 kmh SW 1.8 mph2.9 kmh 30.07 in1018.3 mb 0.00 in0.0 mm 0.00 in/hr0.0 mm/hr 0.00 in0.0 mm
07:50 PM 34.0°F1.1°C 29.4°F-1.4°C 83% 0.8 mph SW1.3 kmh SW 1.8 mph2.9 kmh 30.07 in1018.3 mb 0.00 in0.0 mm 0.00 in/hr0.0 mm/hr 0.00 in0.0 mm
07:56 PM 33.8°F1.0°C 29.2°F-1.6°C 83% 1.2 mph SW1.9 kmh SW 1.3 mph2.1 kmh 30.07 in1018.3 mb 0.00 in0.0 mm 0.00 in/hr0.0 mm/hr 0.00 in0.0 mm
08:01 PM 33.7°F0.9°C 29.0°F-1.7°C 83% 1.2 mph SW1.9 kmh SW 1.3 mph2.1 kmh 30.07 in1018.3 mb 0.00 in0.0 mm 0.00 in/hr0.0 mm/hr 0.00 in0.0 mm
08:06 PM 33.5°F0.8°C 28.8°F-1.8°C 83% 1.2 mph SSW1.9 kmh SSW 1.3 mph2.1 kmh 30.07 in1018.3 mb 0.00 in0.0 mm 0.00 in/hr0.0 mm/hr 0.00 in0.0 mm
08:59 PM 32.0°F0.0°C 27.8°F-2.3°C 84% 1.1 mph SSW1.8 kmh SSW 1.1 mph1.8 kmh 30.08 in1018.6 mb 0.00 in0.0 mm 0.00 in/hr0.0 mm/hr 0.00 in0.0 mm
09:04 PM 32.0°F0.0°C 27.8°F-2.3°C 84% 1.6 mph SW2.6 kmh SW 1.8 mph2.9 kmh 30.09 in1019.0 mb 0.00 in0.0 mm 0.00 in/hr0.0 mm/hr 0.00 in0.0 mm
09:10 PM 31.9°F-0.1°C 27.6°F-2.4°C 84% 1.0 mph SW1.6 kmh SW 1.8 mph2.9 kmh 30.09 in1019.0 mb 0.00 in0.0 mm 0.00 in/hr0.0 mm/hr 0.00 in0.0 mm
09:15 PM 31.7°F-0.2°C 27.5°F-2.5°C 84% 1.1 mph SW1.8 kmh SW 1.8 mph2.9 kmh 30.09 in1019.0 mb 0.00 in0.0 mm 0.00 in/hr0.0 mm/hr 0.00 in0.0 mm
09:20 PM 31.7°F-0.2°C 27.5°F-2.5°C 84% 1.4 mph WSW2.3 kmh WSW 1.8 mph2.9 kmh 30.09 in1019.0 mb 0.00 in0.0 mm 0.00 in/hr0.0 mm/hr 0.00 in0.0 mm
09:25 PM 31.5°F-0.3°C 27.3°F-2.6°C 84% 1.2 mph SW1.9 kmh SW 1.8 mph2.9 kmh 30.09 in1019.0 mb 0.00 in0.0 mm 0.00 in/hr0.0 mm/hr 0.00 in0.0 mm
09:30 PM 31.3°F-0.4°C 27.1°F-2.7°C 84% 1.5 mph SW2.4 kmh SW 1.8 mph2.9 kmh 30.10 in1019.3 mb 0.00 in0.0 mm 0.00 in/hr0.0 mm/hr 0.00 in0.0 mm
09:36 PM 31.3°F-0.4°C 27.4°F-2.6°C 85% 1.1 mph SW1.8 kmh SW 1.8 mph2.9 kmh 30.10 in1019.3 mb 0.00 in0.0 mm 0.00 in/hr0.0 mm/hr 0.00 in0.0 mm
09:41 PM 31.1°F-0.5°C 27.2°F-2.7°C 85% 1.0 mph WSW1.6 kmh WSW 1.8 mph2.9 kmh 30.10 in1019.3 mb 0.00 in0.0 mm 0.00 in/hr0.0 mm/hr 0.00 in0.0 mm
09:46 PM 31.1°F-0.5°C 27.2°F-2.7°C 85% 1.2 mph SW1.9 kmh SW 1.3 mph2.1 kmh 30.10 in1019.3 mb 0.00 in0.0 mm 0.00 in/hr0.0 mm/hr 0.00 in0.0 mm
09:51 PM 31.1°F-0.5°C 27.2°F-2.7°C 85% 1.1 mph SW1.8 kmh SW 1.3 mph2.1 kmh 30.10 in1019.3 mb 0.00 in0.0 mm 0.00 in/hr0.0 mm/hr 0.00 in0.0 mm
09:56 PM 31.0°F-0.6°C 27.0°F-2.8°C 85% 1.3 mph SW2.1 kmh SW 1.6 mph2.6 kmh 30.10 in1019.3 mb 0.00 in0.0 mm 0.00 in/hr0.0 mm/hr 0.00 in0.0 mm
10:02 PM 31.0°F-0.6°C 27.0°F-2.8°C 85% 1.1 mph SW1.8 kmh SW 1.6 mph2.6 kmh 30.10 in1019.3 mb 0.00 in0.0 mm 0.00 in/hr0.0 mm/hr 0.00 in0.0 mm
10:07 PM 30.8°F-0.7°C 26.8°F-2.9°C 85% 1.1 mph SW1.8 kmh SW 1.1 mph1.8 kmh 30.11 in1019.6 mb 0.00 in0.0 mm 0.00 in/hr0.0 mm/hr 0.00 in0.0 mm
10:12 PM 30.6°F-0.8°C 26.6°F-3.0°C 85% 1.2 mph SW1.9 kmh SW 1.3 mph2.1 kmh 30.11 in1019.6 mb 0.00 in0.0 mm 0.00 in/hr0.0 mm/hr 0.00 in0.0 mm
10:17 PM 30.6°F-0.8°C 26.6°F-3.0°C 85% 0.7 mph WSW1.1 kmh WSW 1.3 mph2.1 kmh 30.11 in1019.6 mb 0.00 in0.0 mm 0.00 in/hr0.0 mm/hr 0.00 in0.0 mm
10:23 PM 30.6°F-0.8°C 26.6°F-3.0°C 85% 1.1 mph SW1.8 kmh SW 1.6 mph2.6 kmh 30.11 in1019.6 mb 0.00 in0.0 mm 0.00 in/hr0.0 mm/hr 0.00 in0.0 mm
10:28 PM 30.4°F-0.9°C 26.5°F-3.1°C 85% 1.1 mph SW1.8 kmh SW 1.6 mph2.6 kmh 30.11 in1019.6 mb 0.00 in0.0 mm 0.00 in/hr0.0 mm/hr 0.00 in0.0 mm
10:33 PM 30.2°F-1.0°C 26.3°F-3.2°C 85% 1.1 mph SW1.8 kmh SW 1.3 mph2.1 kmh 30.11 in1019.6 mb 0.00 in0.0 mm 0.00 in/hr0.0 mm/hr 0.00 in0.0 mm
10:39 PM 30.1°F-1.1°C 26.4°F-3.1°C 86% 0.9 mph SW1.4 kmh SW 1.1 mph1.8 kmh 30.11 in1019.6 mb 0.00 in0.0 mm 0.00 in/hr0.0 mm/hr 0.00 in0.0 mm
10:44 PM 30.1°F-1.1°C 26.4°F-3.1°C 86% 1.2 mph SW1.9 kmh SW 1.6 mph2.6 kmh 30.11 in1019.6 mb 0.00 in0.0 mm 0.00 in/hr0.0 mm/hr 0.00 in0.0 mm
10:49 PM 29.9°F-1.2°C 26.2°F-3.2°C 86% 0.7 mph SW1.1 kmh SW 1.6 mph2.6 kmh 30.11 in1019.6 mb 0.00 in0.0 mm 0.00 in/hr0.0 mm/hr 0.00 in0.0 mm
10:54 PM 29.9°F-1.2°C 26.2°F-3.2°C 86% 0.6 mph WSW1.0 kmh WSW 1.6 mph2.6 kmh 30.11 in1019.6 mb 0.00 in0.0 mm 0.00 in/hr0.0 mm/hr 0.00 in0.0 mm
11:00 PM 29.9°F-1.2°C 26.2°F-3.2°C 86% 0.8 mph SW1.3 kmh SW 1.1 mph1.8 kmh 30.11 in1019.6 mb 0.00 in0.0 mm 0.00 in/hr0.0 mm/hr 0.00 in0.0 mm
11:05 PM 29.9°F-1.2°C 26.2°F-3.2°C 86% 1.0 mph SW1.6 kmh SW 1.1 mph1.8 kmh 30.12 in1020.0 mb 0.00 in0.0 mm 0.00 in/hr0.0 mm/hr 0.00 in0.0 mm
11:10 PM 29.9°F-1.2°C 26.2°F-3.2°C 86% 1.0 mph SW1.6 kmh SW 1.1 mph1.8 kmh 30.12 in1020.0 mb 0.00 in0.0 mm 0.00 in/hr0.0 mm/hr 0.00 in0.0 mm
11:16 PM 29.7°F-1.3°C 26.0°F-3.3°C 86% 0.5 mph SSW0.8 kmh SSW 1.1 mph1.8 kmh 30.12 in1020.0 mb 0.00 in0.0 mm 0.00 in/hr0.0 mm/hr 0.00 in0.0 mm
11:21 PM 29.5°F-1.4°C 25.8°F-3.4°C 86% 0.5 mph SW0.8 kmh SW 1.1 mph1.8 kmh 30.12 in1020.0 mb 0.00 in0.0 mm 0.00 in/hr0.0 mm/hr 0.00 in0.0 mm
11:26 PM 29.5°F-1.4°C 25.8°F-3.4°C 86% 0.7 mph SW1.1 kmh SW 0.9 mph1.4 kmh 30.12 in1020.0 mb 0.00 in0.0 mm 0.00 in/hr0.0 mm/hr 0.00 in0.0 mm
11:32 PM 29.5°F-1.4°C 25.8°F-3.4°C 86% 0.8 mph SW1.3 kmh SW 0.9 mph1.4 kmh 30.12 in1020.0 mb 0.00 in0.0 mm 0.00 in/hr0.0 mm/hr 0.00 in0.0 mm
11:37 PM 29.3°F-1.5°C 25.7°F-3.5°C 86% 1.1 mph SW1.8 kmh SW 1.1 mph1.8 kmh 30.12 in1020.0 mb 0.00 in0.0 mm 0.00 in/hr0.0 mm/hr 0.00 in0.0 mm
11:42 PM 29.3°F-1.5°C 25.7°F-3.5°C 86% 0.7 mph SW1.1 kmh SW 1.1 mph1.8 kmh 30.12 in1020.0 mb 0.00 in0.0 mm 0.00 in/hr0.0 mm/hr 0.00 in0.0 mm
11:47 PM 29.2°F-1.6°C 25.5°F-3.6°C 86% 1.0 mph SW1.6 kmh SW 1.1 mph1.8 kmh 30.12 in1020.0 mb 0.00 in0.0 mm 0.00 in/hr0.0 mm/hr 0.00 in0.0 mm
11:53 PM 29.2°F-1.6°C 25.5°F-3.6°C 86% 1.2 mph SW1.9 kmh SW 1.3 mph2.1 kmh 30.12 in1020.0 mb 0.00 in0.0 mm 0.00 in/hr0.0 mm/hr 0.00 in0.0 mm
11:58 PM 29.2°F-1.6°C 25.5°F-3.6°C 86% 1.1 mph SW1.8 kmh SW 1.3 mph2.1 kmh 30.12 in1020.0 mb 0.00 in0.0 mm 0.00 in/hr0.0 mm/hr 0.00 in0.0 mm